createdAt,value
2022-09-29T00:02:45.725Z,96741.38
2022-09-29T00:07:47.989Z,96741.38
2022-09-29T00:12:50.279Z,96749.13
2022-09-29T00:18:12.602Z,96756.88
2022-09-29T00:23:14.152Z,96755.28
2022-09-29T00:28:16.040Z,96756.06
2022-09-29T00:33:17.841Z,96760.69
2022-09-29T00:38:19.640Z,96756.84
2022-09-29T00:43:45.840Z,96756.06
2022-09-29T00:48:48.135Z,96757.59
2022-09-29T00:53:50.097Z,96751.78
2022-09-29T00:59:00.837Z,96745.56
2022-09-29T01:04:15.777Z,96742.88
2022-09-29T01:09:22.472Z,96749.06
2022-09-29T01:14:26.473Z,96750.59
2022-09-29T01:19:34.330Z,96756.78
2022-09-29T01:25:03.789Z,96759.13
2022-09-29T01:30:08.326Z,96766.09
2022-09-29T01:35:35.718Z,96769.16
2022-09-29T01:40:58.681Z,96769.53
2022-09-29T01:46:07.158Z,96770.72
2022-09-29T01:51:15.361Z,96776.88
2022-09-29T01:56:25.900Z,96769.16
2022-09-29T02:01:35.168Z,96775.28
2022-09-29T02:06:50.021Z,96777.53
2022-09-29T02:11:54.155Z,96772.09
2022-09-29T02:17:03.736Z,96766.59
2022-09-29T02:22:05.586Z,96771.97
2022-09-29T02:27:07.816Z,96783.53
2022-09-29T02:32:10.276Z,96783.56
2022-09-29T02:37:26.944Z,96792.09
2022-09-29T02:42:48.743Z,96790.56
2022-09-29T02:48:00.186Z,96789.03
2022-09-29T02:53:26.711Z,96783.66
2022-09-29T02:58:51.669Z,96795.31
2022-09-29T03:03:53.546Z,96792.22
2022-09-29T03:08:56.019Z,96791.44
2022-09-29T03:13:58.198Z,96791.84
2022-09-29T03:18:59.983Z,96793.03
2022-09-29T03:24:02.046Z,96793.47
2022-09-29T03:29:03.973Z,96793.09
2022-09-29T03:34:05.890Z,96797.75
2022-09-29T03:39:08.553Z,96805.09
2022-09-29T03:44:10.353Z,96815.16
2022-09-29T03:49:12.819Z,96809.72
2022-09-29T03:54:14.733Z,96808.59
2022-09-29T03:59:16.649Z,96812.47
2022-09-29T04:04:18.496Z,96817.50
2022-09-29T04:09:20.538Z,96809.81
2022-09-29T04:14:22.465Z,96811.00
2022-09-29T04:19:25.301Z,96814.06
2022-09-29T04:24:27.316Z,96812.50
2022-09-29T04:29:29.109Z,96820.25
2022-09-29T04:34:30.907Z,96811.03
2022-09-29T04:39:32.697Z,96818.00
2022-09-29T04:44:34.514Z,96823.44
2022-09-29T04:49:36.319Z,96820.72
2022-09-29T04:54:38.357Z,96827.28
2022-09-29T04:59:40.178Z,96828.09
2022-09-29T05:04:41.967Z,96838.56
2022-09-29T05:09:43.829Z,96838.16
2022-09-29T05:14:45.638Z,96838.19
2022-09-29T05:19:47.428Z,96838.97
2022-09-29T05:24:49.190Z,96839.38
2022-09-29T05:29:50.965Z,96834.34
2022-09-29T05:34:52.745Z,96846.72
2022-09-29T05:39:54.509Z,96844.81
2022-09-29T05:44:56.276Z,96852.19
2022-09-29T05:49:58.071Z,96841.34
2022-09-29T05:54:59.942Z,96835.91
2022-09-29T06:00:02.461Z,96839.03
2022-09-29T06:05:13.199Z,96840.97
2022-09-29T06:10:15.131Z,96848.34
2022-09-29T06:15:17.135Z,96846.78
2022-09-29T06:20:18.984Z,96853.75
2022-09-29T06:25:20.930Z,96855.31
2022-09-29T06:30:22.723Z,96852.22
2022-09-29T06:35:43.308Z,96847.53
2022-09-29T06:40:45.160Z,96861.50
2022-09-29T06:45:47.071Z,96864.59
2022-09-29T06:51:00.171Z,96854.53
2022-09-29T06:56:05.517Z,96856.09
2022-09-29T07:01:07.765Z,96857.63
2022-09-29T07:06:26.193Z,96852.97
2022-09-29T07:11:29.062Z,96853.69
2022-09-29T07:16:30.891Z,96849.75
2022-09-29T07:21:32.735Z,96850.38
2022-09-29T07:26:34.574Z,96844.84
2022-09-29T07:31:48.994Z,96866.13
2022-09-29T07:36:52.262Z,96868.75
2022-09-29T07:41:55.250Z,96867.91
2022-09-29T07:46:57.116Z,96883.75
2022-09-29T07:51:58.908Z,96892.22
2022-09-29T07:57:02.870Z,96889.88
2022-09-29T08:02:04.840Z,96892.66
2022-09-29T08:07:07.180Z,96887.72
2022-09-29T08:12:09.280Z,96887.94
2022-09-29T08:17:11.642Z,96891.47
2022-09-29T08:22:24.404Z,96896.91
2022-09-29T08:27:26.526Z,96900.63
2022-09-29T08:32:28.531Z,96902.44
2022-09-29T08:37:34.947Z,96899.47
2022-09-29T08:42:51.464Z,96911.97
2022-09-29T08:48:02.662Z,96905.91
2022-09-29T08:53:21.281Z,96918.47
2022-09-29T08:58:27.415Z,96921.97
2022-09-29T09:03:32.514Z,96928.94
2022-09-29T09:08:46.613Z,96921.28
2022-09-29T09:14:12.579Z,96928.22
2022-09-29T09:19:33.277Z,96925.19
2022-09-29T09:24:47.797Z,96920.34
2022-09-29T09:29:55.399Z,96929.84
2022-09-29T09:35:19.386Z,96920.09
2022-09-29T09:40:29.765Z,96932.88
2022-09-29T09:45:37.855Z,96921.66
2022-09-29T09:50:43.143Z,96934.81
2022-09-29T09:55:52.518Z,96934.22
2022-09-29T10:01:12.467Z,96929.59
2022-09-29T10:06:14.379Z,96941.56
2022-09-29T10:11:19.188Z,96939.47
2022-09-29T10:16:29.110Z,96952.28
2022-09-29T10:21:37.085Z,96951.97
2022-09-29T10:26:38.861Z,96963.13
2022-09-29T10:31:40.742Z,96957.88
2022-09-29T10:37:00.582Z,96960.31
2022-09-29T10:42:02.785Z,96968.13
2022-09-29T10:47:14.818Z,96965.59
2022-09-29T10:52:21.842Z,96971.22
2022-09-29T10:57:28.839Z,96966.84
2022-09-29T11:02:40.030Z,96975.91
2022-09-29T11:07:47.086Z,96976.53
2022-09-29T11:12:50.265Z,96975.34
2022-09-29T11:17:52.665Z,96971.78
2022-09-29T11:23:00.391Z,96972.06
2022-09-29T11:28:23.875Z,96973.81
2022-09-29T11:33:42.603Z,96981.44
2022-09-29T11:39:23.114Z,96970.59
2022-09-29T11:44:42.752Z,96975.75
2022-09-29T11:50:03.617Z,96982.97
2022-09-29T11:55:14.478Z,96983.47
2022-09-29T12:00:19.989Z,96974.94
2022-09-29T12:05:27.440Z,96976.66
2022-09-29T12:11:23.667Z,96983.50
2022-09-29T12:16:32.290Z,96984.19
2022-09-29T12:21:48.928Z,96983.22
2022-09-29T12:26:53.726Z,96984.69
2022-09-29T12:31:58.949Z,96987.56
2022-09-29T12:37:02.570Z,96987.66
2022-09-29T12:42:41.946Z,96993.28
2022-09-29T12:47:49.811Z,96993.47
2022-09-29T12:53:10.113Z,96999.94
2022-09-29T12:58:24.978Z,97005.41
2022-09-29T13:03:35.643Z,96996.88
2022-09-29T13:08:46.492Z,97003.97
2022-09-29T13:14:27.336Z,97009.03
2022-09-29T13:19:57.176Z,97013.31
2022-09-29T13:25:24.021Z,97003.03
2022-09-29T13:30:33.029Z,97013.00
2022-09-29T13:35:44.958Z,97015.91
2022-09-29T13:41:15.376Z,97009.75
2022-09-29T13:46:32.461Z,97014.78
2022-09-29T13:51:58.909Z,97011.63
2022-09-29T13:57:00.723Z,97013.75
2022-09-29T14:02:18.214Z,97005.75
2022-09-29T14:07:43.870Z,96999.41
2022-09-29T14:12:53.691Z,96997.38
2022-09-29T14:18:03.428Z,96988.59
2022-09-29T14:23:07.997Z,96989.69
2022-09-29T14:28:14.813Z,97005.56
2022-09-29T14:33:29.480Z,97022.22
2022-09-29T14:38:42.749Z,97013.13
2022-09-29T14:43:48.363Z,97020.69
2022-09-29T14:49:43.815Z,97024.66
2022-09-29T14:54:57.505Z,97032.28
2022-09-29T15:00:05.622Z,97036.84
2022-09-29T15:05:32.080Z,97034.84
2022-09-29T15:10:40.774Z,97043.97
2022-09-29T15:15:46.671Z,97039.94
2022-09-29T15:21:03.119Z,97056.50
2022-09-29T15:26:05.320Z,97056.66
2022-09-29T15:31:11.834Z,97064.03
2022-09-29T15:36:37.838Z,97076.00
2022-09-29T15:41:40.435Z,97090.06
2022-09-29T15:46:51.618Z,97084.66
2022-09-29T15:52:02.643Z,97095.78
2022-09-29T15:57:23.834Z,97097.53
2022-09-29T16:02:30.976Z,97103.91
2022-09-29T16:07:38.459Z,97117.06
2022-09-29T16:12:53.892Z,97121.94
2022-09-29T16:17:57.176Z,97135.91
2022-09-29T16:23:17.428Z,97141.84
2022-09-29T16:28:27.750Z,97151.75
2022-09-29T16:33:29.821Z,97160.47
2022-09-29T16:38:36.206Z,97163.97
2022-09-29T16:43:42.169Z,97168.38
2022-09-29T16:48:45.509Z,97164.56
2022-09-29T16:53:49.564Z,97169.72
2022-09-29T16:59:21.141Z,97173.81
2022-09-29T17:04:22.972Z,97194.59
2022-09-29T17:09:26.505Z,97187.69
2022-09-29T17:14:30.896Z,97210.47
2022-09-29T17:19:33.021Z,97203.69
2022-09-29T17:24:34.823Z,97209.22
2022-09-29T17:29:36.734Z,97204.94
2022-09-29T17:34:38.557Z,97208.50
2022-09-29T17:39:40.369Z,97209.31
2022-09-29T17:44:44.778Z,97216.44
2022-09-29T17:49:50.978Z,97217.69
2022-09-29T17:54:52.966Z,97226.94
2022-09-29T17:59:55.107Z,97218.38
2022-09-29T18:04:56.908Z,97226.22
2022-09-29T18:09:59.068Z,97219.63
2022-09-29T18:15:02.084Z,97216.38
2022-09-29T18:20:20.698Z,97223.19
2022-09-29T18:25:22.814Z,97218.19
2022-09-29T18:30:28.356Z,97216.69
2022-09-29T18:35:32.980Z,97208.44
2022-09-29T18:40:35.494Z,97208.75
2022-09-29T18:45:40.769Z,97211.97
2022-09-29T18:50:44.627Z,97216.63
2022-09-29T18:55:47.322Z,97225.06
2022-09-29T19:00:55.390Z,97226.47
2022-09-29T19:05:57.392Z,97236.91
2022-09-29T19:11:00.680Z,97245.06
2022-09-29T19:16:03.936Z,97248.19
2022-09-29T19:21:11.055Z,97255.25
2022-09-29T19:26:17.110Z,97257.97
2022-09-29T19:31:21.250Z,97257.56
2022-09-29T19:36:23.256Z,97266.94
2022-09-29T19:41:25.793Z,97270.88
2022-09-29T19:46:28.020Z,97277.50
2022-09-29T19:51:48.606Z,97282.97
2022-09-29T19:56:55.435Z,97277.13
2022-09-29T20:01:57.955Z,97286.50
2022-09-29T20:07:01.012Z,97280.28
2022-09-29T20:12:02.955Z,97290.50
2022-09-29T20:17:04.828Z,97301.47
2022-09-29T20:22:08.408Z,97304.25
2022-09-29T20:27:11.107Z,97304.69
2022-09-29T20:32:12.991Z,97323.84
2022-09-29T20:37:14.870Z,97328.16
2022-09-29T20:42:18.089Z,97327.47
2022-09-29T20:47:19.882Z,97336.06
2022-09-29T20:52:21.943Z,97340.41
2022-09-29T20:57:23.832Z,97346.25
2022-09-29T21:02:25.788Z,97342.78
2022-09-29T21:07:36.724Z,97347.84
2022-09-29T21:12:38.825Z,97358.78
2022-09-29T21:17:40.891Z,97368.13
2022-09-29T21:22:42.697Z,97374.38
2022-09-29T21:27:44.533Z,97380.19
2022-09-29T21:32:46.497Z,97379.06
2022-09-29T21:37:48.618Z,97385.66
2022-09-29T21:42:50.665Z,97389.97
2022-09-29T21:48:11.486Z,97384.91
2022-09-29T21:53:13.345Z,97383.34
2022-09-29T21:58:15.118Z,97381.34
2022-09-29T22:03:16.890Z,97386.72
2022-09-29T22:08:18.774Z,97389.84
2022-09-29T22:13:25.001Z,97392.97
2022-09-29T22:18:40.574Z,97395.25
2022-09-29T22:23:44.393Z,97402.25
2022-09-29T22:28:46.282Z,97401.50
2022-09-29T22:33:48.112Z,97410.44
2022-09-29T22:38:50.312Z,97410.47
2022-09-29T22:43:53.869Z,97413.97
2022-09-29T22:48:56.152Z,97420.97
2022-09-29T22:53:58.042Z,97415.53
2022-09-29T22:59:02.354Z,97407.00
2022-09-29T23:04:04.478Z,97407.75
2022-09-29T23:09:06.655Z,97420.97
2022-09-29T23:14:08.535Z,97428.34
2022-09-29T23:19:11.460Z,97419.41
2022-09-29T23:24:13.261Z,97423.31
2022-09-29T23:29:15.164Z,97419.44
2022-09-29T23:34:17.282Z,97421.38
2022-09-29T23:39:19.561Z,97426.44
2022-09-29T23:44:23.899Z,97428.34
2022-09-29T23:49:28.929Z,97425.59
2022-09-29T23:54:30.904Z,97427.16
2022-09-29T23:59:32.687Z,97413.94
